sensor_id;sensor_type;location;lat;lon;timestamp;P1;durP1;ratioP1;P2;durP2;ratioP2
4638;SDS011;2332;38.646;-9.154;2023-04-15T00:01:50;11.30;;;2.80;;
4638;SDS011;2332;38.646;-9.154;2023-04-15T00:04:16;9.30;;;2.77;;
4638;SDS011;2332;38.646;-9.154;2023-04-15T00:06:41;4.63;;;2.17;;
4638;SDS011;2332;38.646;-9.154;2023-04-15T00:09:07;10.43;;;2.50;;
4638;SDS011;2332;38.646;-9.154;2023-04-15T00:11:32;11.77;;;3.00;;
4638;SDS011;2332;38.646;-9.154;2023-04-15T00:13:58;8.13;;;2.53;;
4638;SDS011;2332;38.646;-9.154;2023-04-15T00:16:24;7.53;;;2.83;;
4638;SDS011;2332;38.646;-9.154;2023-04-15T00:18:50;11.10;;;1.97;;
4638;SDS011;2332;38.646;-9.154;2023-04-15T00:21:16;4.33;;;2.30;;
4638;SDS011;2332;38.646;-9.154;2023-04-15T00:23:41;8.33;;;2.60;;
4638;SDS011;2332;38.646;-9.154;2023-04-15T00:26:06;10.73;;;2.63;;
4638;SDS011;2332;38.646;-9.154;2023-04-15T00:28:32;10.87;;;2.07;;
4638;SDS011;2332;38.646;-9.154;2023-04-15T00:30:58;10.10;;;2.30;;
4638;SDS011;2332;38.646;-9.154;2023-04-15T00:33:23;14.30;;;2.70;;
4638;SDS011;2332;38.646;-9.154;2023-04-15T00:35:49;5.53;;;2.03;;
4638;SDS011;2332;38.646;-9.154;2023-04-15T00:38:15;27.93;;;4.23;;
4638;SDS011;2332;38.646;-9.154;2023-04-15T00:40:40;5.90;;;1.90;;
4638;SDS011;2332;38.646;-9.154;2023-04-15T00:43:05;4.97;;;2.27;;
4638;SDS011;2332;38.646;-9.154;2023-04-15T00:45:31;8.10;;;2.47;;
4638;SDS011;2332;38.646;-9.154;2023-04-15T00:47:57;4.87;;;2.10;;
4638;SDS011;2332;38.646;-9.154;2023-04-15T00:50:22;8.40;;;2.37;;
4638;SDS011;2332;38.646;-9.154;2023-04-15T00:52:48;9.30;;;1.90;;
4638;SDS011;2332;38.646;-9.154;2023-04-15T00:55:13;11.10;;;2.23;;
4638;SDS011;2332;38.646;-9.154;2023-04-15T00:57:39;6.80;;;1.97;;
4638;SDS011;2332;38.646;-9.154;2023-04-15T01:00:05;7.77;;;2.10;;
4638;SDS011;2332;38.646;-9.154;2023-04-15T01:02:33;8.83;;;2.00;;
4638;SDS011;2332;38.646;-9.154;2023-04-15T01:04:58;12.20;;;2.50;;
4638;SDS011;2332;38.646;-9.154;2023-04-15T01:07:24;9.53;;;3.00;;
4638;SDS011;2332;38.646;-9.154;2023-04-15T01:09:49;5.57;;;2.10;;
4638;SDS011;2332;38.646;-9.154;2023-04-15T01:12:14;6.97;;;2.40;;
4638;SDS011;2332;38.646;-9.154;2023-04-15T01:14:41;9.20;;;1.83;;
4638;SDS011;2332;38.646;-9.154;2023-04-15T01:17:06;5.40;;;2.00;;
4638;SDS011;2332;38.646;-9.154;2023-04-15T01:19:31;8.10;;;2.37;;
4638;SDS011;2332;38.646;-9.154;2023-04-15T01:21:57;9.90;;;2.80;;
4638;SDS011;2332;38.646;-9.154;2023-04-15T01:24:23;8.93;;;2.70;;
4638;SDS011;2332;38.646;-9.154;2023-04-15T01:26:51;17.43;;;3.40;;
4638;SDS011;2332;38.646;-9.154;2023-04-15T01:29:16;11.13;;;2.40;;
4638;SDS011;2332;38.646;-9.154;2023-04-15T01:31:49;4.97;;;2.00;;
4638;SDS011;2332;38.646;-9.154;2023-04-15T01:34:15;11.03;;;2.83;;
4638;SDS011;2332;38.646;-9.154;2023-04-15T01:36:41;10.37;;;2.10;;
4638;SDS011;2332;38.646;-9.154;2023-04-15T01:39:06;9.17;;;2.73;;
4638;SDS011;2332;38.646;-9.154;2023-04-15T01:41:32;6.87;;;2.60;;
4638;SDS011;2332;38.646;-9.154;2023-04-15T01:43:57;2.73;;;1.60;;
4638;SDS011;2332;38.646;-9.154;2023-04-15T01:46:23;9.77;;;2.07;;
4638;SDS011;2332;38.646;-9.154;2023-04-15T01:48:48;4.43;;;1.70;;
4638;SDS011;2332;38.646;-9.154;2023-04-15T01:51:14;4.70;;;1.50;;
4638;SDS011;2332;38.646;-9.154;2023-04-15T01:53:39;4.83;;;1.47;;
4638;SDS011;2332;38.646;-9.154;2023-04-15T01:56:05;2.20;;;1.30;;
4638;SDS011;2332;38.646;-9.154;2023-04-15T01:58:31;2.23;;;1.30;;
4638;SDS011;2332;38.646;-9.154;2023-04-15T02:00:56;4.03;;;1.60;;
4638;SDS011;2332;38.646;-9.154;2023-04-15T02:03:23;3.43;;;1.43;;
4638;SDS011;2332;38.646;-9.154;2023-04-15T02:05:48;8.87;;;1.97;;
4638;SDS011;2332;38.646;-9.154;2023-04-15T02:08:15;4.83;;;1.83;;
4638;SDS011;2332;38.646;-9.154;2023-04-15T02:10:40;5.03;;;1.47;;
4638;SDS011;2332;38.646;-9.154;2023-04-15T02:13:06;1.90;;;1.60;;
4638;SDS011;2332;38.646;-9.154;2023-04-15T02:15:31;1.50;;;1.10;;
4638;SDS011;2332;38.646;-9.154;2023-04-15T02:17:57;5.00;;;2.37;;
4638;SDS011;2332;38.646;-9.154;2023-04-15T02:20:24;4.40;;;1.77;;
4638;SDS011;2332;38.646;-9.154;2023-04-15T02:22:50;2.30;;;1.13;;
4638;SDS011;2332;38.646;-9.154;2023-04-15T02:25:16;2.30;;;1.23;;
4638;SDS011;2332;38.646;-9.154;2023-04-15T02:27:42;6.23;;;1.70;;
4638;SDS011;2332;38.646;-9.154;2023-04-15T02:30:08;1.47;;;1.00;;
4638;SDS011;2332;38.646;-9.154;2023-04-15T02:32:34;3.00;;;1.20;;
4638;SDS011;2332;38.646;-9.154;2023-04-15T02:35:02;5.20;;;1.50;;
4638;SDS011;2332;38.646;-9.154;2023-04-15T02:37:28;3.37;;;1.43;;
4638;SDS011;2332;38.646;-9.154;2023-04-15T02:39:55;2.00;;;1.30;;
4638;SDS011;2332;38.646;-9.154;2023-04-15T02:42:20;1.97;;;1.20;;
4638;SDS011;2332;38.646;-9.154;2023-04-15T02:44:45;3.83;;;1.47;;
4638;SDS011;2332;38.646;-9.154;2023-04-15T02:47:11;3.43;;;1.23;;
4638;SDS011;2332;38.646;-9.154;2023-04-15T02:49:37;3.17;;;1.40;;
4638;SDS011;2332;38.646;-9.154;2023-04-15T02:52:02;6.13;;;1.13;;
4638;SDS011;2332;38.646;-9.154;2023-04-15T02:54:28;2.97;;;1.50;;
4638;SDS011;2332;38.646;-9.154;2023-04-15T02:56:54;4.17;;;1.10;;
4638;SDS011;2332;38.646;-9.154;2023-04-15T02:59:20;2.30;;;1.10;;
4638;SDS011;2332;38.646;-9.154;2023-04-15T03:01:45;2.50;;;1.50;;
4638;SDS011;2332;38.646;-9.154;2023-04-15T03:04:11;3.50;;;1.10;;
4638;SDS011;2332;38.646;-9.154;2023-04-15T03:06:37;1.70;;;1.13;;
4638;SDS011;2332;38.646;-9.154;2023-04-15T03:09:03;3.33;;;1.10;;
4638;SDS011;2332;38.646;-9.154;2023-04-15T03:11:28;3.27;;;1.20;;
4638;SDS011;2332;38.646;-9.154;2023-04-15T03:13:53;3.27;;;1.10;;
4638;SDS011;2332;38.646;-9.154;2023-04-15T03:16:19;1.03;;;1.00;;
4638;SDS011;2332;38.646;-9.154;2023-04-15T03:18:45;3.50;;;1.20;;
4638;SDS011;2332;38.646;-9.154;2023-04-15T03:21:10;4.50;;;1.37;;
4638;SDS011;2332;38.646;-9.154;2023-04-15T03:23:35;2.17;;;0.90;;
4638;SDS011;2332;38.646;-9.154;2023-04-15T03:26:01;2.13;;;1.00;;
4638;SDS011;2332;38.646;-9.154;2023-04-15T03:28:27;3.10;;;1.10;;
4638;SDS011;2332;38.646;-9.154;2023-04-15T03:30:53;2.77;;;1.13;;
4638;SDS011;2332;38.646;-9.154;2023-04-15T03:33:19;1.90;;;1.03;;
4638;SDS011;2332;38.646;-9.154;2023-04-15T03:35:44;3.00;;;1.30;;
4638;SDS011;2332;38.646;-9.154;2023-04-15T03:38:09;2.90;;;1.10;;
4638;SDS011;2332;38.646;-9.154;2023-04-15T03:40:35;3.20;;;1.30;;
4638;SDS011;2332;38.646;-9.154;2023-04-15T03:43:00;2.53;;;0.90;;
4638;SDS011;2332;38.646;-9.154;2023-04-15T03:45:26;2.77;;;0.90;;
4638;SDS011;2332;38.646;-9.154;2023-04-15T03:47:51;2.97;;;1.03;;
4638;SDS011;2332;38.646;-9.154;2023-04-15T03:50:17;1.20;;;1.00;;
4638;SDS011;2332;38.646;-9.154;2023-04-15T03:52:43;2.20;;;0.90;;
4638;SDS011;2332;38.646;-9.154;2023-04-15T03:55:08;4.20;;;0.87;;
4638;SDS011;2332;38.646;-9.154;2023-04-15T03:57:34;2.73;;;1.10;;
4638;SDS011;2332;38.646;-9.154;2023-04-15T04:00:03;4.80;;;1.10;;
4638;SDS011;2332;38.646;-9.154;2023-04-15T04:02:29;1.33;;;0.90;;
4638;SDS011;2332;38.646;-9.154;2023-04-15T04:04:55;2.30;;;0.80;;
4638;SDS011;2332;38.646;-9.154;2023-04-15T04:07:22;2.37;;;0.90;;
4638;SDS011;2332;38.646;-9.154;2023-04-15T04:09:47;2.73;;;0.90;;
4638;SDS011;2332;38.646;-9.154;2023-04-15T04:12:13;0.80;;;0.80;;
4638;SDS011;2332;38.646;-9.154;2023-04-15T04:14:38;1.37;;;0.80;;
4638;SDS011;2332;38.646;-9.154;2023-04-15T04:17:04;2.43;;;0.90;;
4638;SDS011;2332;38.646;-9.154;2023-04-15T04:19:29;1.20;;;0.67;;
4638;SDS011;2332;38.646;-9.154;2023-04-15T04:21:55;1.43;;;0.70;;
4638;SDS011;2332;38.646;-9.154;2023-04-15T04:24:20;0.70;;;0.70;;
4638;SDS011;2332;38.646;-9.154;2023-04-15T04:26:46;1.53;;;0.83;;
4638;SDS011;2332;38.646;-9.154;2023-04-15T04:29:11;0.93;;;0.77;;
4638;SDS011;2332;38.646;-9.154;2023-04-15T04:31:37;1.30;;;0.70;;
4638;SDS011;2332;38.646;-9.154;2023-04-15T04:34:02;0.70;;;0.70;;
4638;SDS011;2332;38.646;-9.154;2023-04-15T04:36:28;1.47;;;1.03;;
4638;SDS011;2332;38.646;-9.154;2023-04-15T04:38:53;1.83;;;0.70;;
4638;SDS011;2332;38.646;-9.154;2023-04-15T04:41:18;2.63;;;0.70;;
4638;SDS011;2332;38.646;-9.154;2023-04-15T04:43:44;1.90;;;0.93;;
4638;SDS011;2332;38.646;-9.154;2023-04-15T04:46:09;0.70;;;0.70;;
4638;SDS011;2332;38.646;-9.154;2023-04-15T04:48:34;1.03;;;0.77;;
4638;SDS011;2332;38.646;-9.154;2023-04-15T04:51:00;4.70;;;1.63;;
4638;SDS011;2332;38.646;-9.154;2023-04-15T04:53:26;0.80;;;0.77;;
4638;SDS011;2332;38.646;-9.154;2023-04-15T04:55:52;3.90;;;0.90;;
4638;SDS011;2332;38.646;-9.154;2023-04-15T04:58:17;1.80;;;0.77;;
4638;SDS011;2332;38.646;-9.154;2023-04-15T05:00:43;1.47;;;0.90;;
4638;SDS011;2332;38.646;-9.154;2023-04-15T05:03:08;0.80;;;0.80;;
4638;SDS011;2332;38.646;-9.154;2023-04-15T05:05:34;1.63;;;0.80;;
4638;SDS011;2332;38.646;-9.154;2023-04-15T05:08:01;1.30;;;0.77;;
4638;SDS011;2332;38.646;-9.154;2023-04-15T05:10:26;3.37;;;1.00;;
4638;SDS011;2332;38.646;-9.154;2023-04-15T05:12:52;2.37;;;1.03;;
4638;SDS011;2332;38.646;-9.154;2023-04-15T05:15:17;3.43;;;0.90;;
4638;SDS011;2332;38.646;-9.154;2023-04-15T05:17:42;1.93;;;0.80;;
4638;SDS011;2332;38.646;-9.154;2023-04-15T05:20:08;1.10;;;1.00;;
4638;SDS011;2332;38.646;-9.154;2023-04-15T05:22:34;3.47;;;1.07;;
4638;SDS011;2332;38.646;-9.154;2023-04-15T05:25:00;1.60;;;0.80;;
4638;SDS011;2332;38.646;-9.154;2023-04-15T05:27:25;1.23;;;1.13;;
4638;SDS011;2332;38.646;-9.154;2023-04-15T05:29:50;3.30;;;0.87;;
4638;SDS011;2332;38.646;-9.154;2023-04-15T05:32:16;0.90;;;0.90;;
4638;SDS011;2332;38.646;-9.154;2023-04-15T05:34:41;2.10;;;0.80;;
4638;SDS011;2332;38.646;-9.154;2023-04-15T05:37:07;1.00;;;0.80;;
4638;SDS011;2332;38.646;-9.154;2023-04-15T05:39:32;0.70;;;0.70;;
4638;SDS011;2332;38.646;-9.154;2023-04-15T05:41:58;2.53;;;1.20;;
4638;SDS011;2332;38.646;-9.154;2023-04-15T05:44:24;1.40;;;0.90;;
4638;SDS011;2332;38.646;-9.154;2023-04-15T05:46:49;3.90;;;0.80;;
4638;SDS011;2332;38.646;-9.154;2023-04-15T05:49:15;3.80;;;0.90;;
4638;SDS011;2332;38.646;-9.154;2023-04-15T05:51:40;1.70;;;0.90;;
4638;SDS011;2332;38.646;-9.154;2023-04-15T05:54:06;0.97;;;0.80;;
4638;SDS011;2332;38.646;-9.154;2023-04-15T05:56:31;1.23;;;1.13;;
4638;SDS011;2332;38.646;-9.154;2023-04-15T05:58:56;0.80;;;0.80;;
4638;SDS011;2332;38.646;-9.154;2023-04-15T06:01:22;1.87;;;1.13;;
4638;SDS011;2332;38.646;-9.154;2023-04-15T06:03:47;0.97;;;0.97;;
4638;SDS011;2332;38.646;-9.154;2023-04-15T06:06:13;1.07;;;1.00;;
4638;SDS011;2332;38.646;-9.154;2023-04-15T06:08:39;5.43;;;1.00;;
4638;SDS011;2332;38.646;-9.154;2023-04-15T06:11:04;0.90;;;0.90;;
4638;SDS011;2332;38.646;-9.154;2023-04-15T06:13:30;2.50;;;0.97;;
4638;SDS011;2332;38.646;-9.154;2023-04-15T06:15:55;1.77;;;0.83;;
4638;SDS011;2332;38.646;-9.154;2023-04-15T06:18:21;0.87;;;0.87;;
4638;SDS011;2332;38.646;-9.154;2023-04-15T06:20:46;0.80;;;0.80;;
4638;SDS011;2332;38.646;-9.154;2023-04-15T06:23:12;0.90;;;0.90;;
4638;SDS011;2332;38.646;-9.154;2023-04-15T06:25:37;0.80;;;0.80;;
4638;SDS011;2332;38.646;-9.154;2023-04-15T06:28:02;2.60;;;0.80;;
4638;SDS011;2332;38.646;-9.154;2023-04-15T06:30:28;0.90;;;0.90;;
4638;SDS011;2332;38.646;-9.154;2023-04-15T06:32:53;0.70;;;0.70;;
4638;SDS011;2332;38.646;-9.154;2023-04-15T06:35:19;1.70;;;0.90;;
4638;SDS011;2332;38.646;-9.154;2023-04-15T06:37:44;0.80;;;0.80;;
4638;SDS011;2332;38.646;-9.154;2023-04-15T06:40:10;2.50;;;0.80;;
4638;SDS011;2332;38.646;-9.154;2023-04-15T06:42:35;2.40;;;0.80;;
4638;SDS011;2332;38.646;-9.154;2023-04-15T06:45:02;0.77;;;0.77;;
4638;SDS011;2332;38.646;-9.154;2023-04-15T06:47:28;1.50;;;0.70;;
4638;SDS011;2332;38.646;-9.154;2023-04-15T06:49:53;0.80;;;0.80;;
4638;SDS011;2332;38.646;-9.154;2023-04-15T06:52:18;1.00;;;0.90;;
4638;SDS011;2332;38.646;-9.154;2023-04-15T06:54:44;1.07;;;0.63;;
4638;SDS011;2332;38.646;-9.154;2023-04-15T06:57:09;1.33;;;0.70;;
4638;SDS011;2332;38.646;-9.154;2023-04-15T06:59:35;1.23;;;0.83;;
4638;SDS011;2332;38.646;-9.154;2023-04-15T07:02:00;0.80;;;0.80;;
4638;SDS011;2332;38.646;-9.154;2023-04-15T07:04:26;1.43;;;0.80;;
4638;SDS011;2332;38.646;-9.154;2023-04-15T07:06:52;0.93;;;0.93;;
4638;SDS011;2332;38.646;-9.154;2023-04-15T07:09:18;0.70;;;0.70;;
4638;SDS011;2332;38.646;-9.154;2023-04-15T07:11:43;0.70;;;0.70;;
4638;SDS011;2332;38.646;-9.154;2023-04-15T07:14:09;1.23;;;0.70;;
4638;SDS011;2332;38.646;-9.154;2023-04-15T07:16:35;0.97;;;0.80;;
4638;SDS011;2332;38.646;-9.154;2023-04-15T07:19:00;0.80;;;0.80;;
4638;SDS011;2332;38.646;-9.154;2023-04-15T07:21:25;0.90;;;0.90;;
4638;SDS011;2332;38.646;-9.154;2023-04-15T07:23:51;0.80;;;0.80;;
4638;SDS011;2332;38.646;-9.154;2023-04-15T07:26:17;0.90;;;0.90;;
4638;SDS011;2332;38.646;-9.154;2023-04-15T07:28:42;0.83;;;0.83;;
4638;SDS011;2332;38.646;-9.154;2023-04-15T07:31:07;0.80;;;0.70;;
4638;SDS011;2332;38.646;-9.154;2023-04-15T07:33:33;0.80;;;0.73;;
4638;SDS011;2332;38.646;-9.154;2023-04-15T07:35:58;0.63;;;0.63;;
4638;SDS011;2332;38.646;-9.154;2023-04-15T07:38:24;1.13;;;0.70;;
4638;SDS011;2332;38.646;-9.154;2023-04-15T07:40:50;0.73;;;0.60;;
4638;SDS011;2332;38.646;-9.154;2023-04-15T07:43:15;2.83;;;0.80;;
4638;SDS011;2332;38.646;-9.154;2023-04-15T07:45:40;1.00;;;0.90;;
4638;SDS011;2332;38.646;-9.154;2023-04-15T07:48:06;0.70;;;0.67;;
4638;SDS011;2332;38.646;-9.154;2023-04-15T07:50:32;0.80;;;0.80;;
4638;SDS011;2332;38.646;-9.154;2023-04-15T07:52:57;0.77;;;0.60;;
4638;SDS011;2332;38.646;-9.154;2023-04-15T07:55:23;1.90;;;0.70;;
4638;SDS011;2332;38.646;-9.154;2023-04-15T07:57:48;1.37;;;0.60;;
4638;SDS011;2332;38.646;-9.154;2023-04-15T08:00:14;0.90;;;0.50;;
4638;SDS011;2332;38.646;-9.154;2023-04-15T08:02:40;1.20;;;1.00;;
4638;SDS011;2332;38.646;-9.154;2023-04-15T08:05:06;1.73;;;0.60;;
4638;SDS011;2332;38.646;-9.154;2023-04-15T08:07:32;0.50;;;0.50;;
4638;SDS011;2332;38.646;-9.154;2023-04-15T08:09:57;0.93;;;0.60;;
4638;SDS011;2332;38.646;-9.154;2023-04-15T08:12:23;0.50;;;0.50;;
4638;SDS011;2332;38.646;-9.154;2023-04-15T08:14:49;0.70;;;0.70;;
4638;SDS011;2332;38.646;-9.154;2023-04-15T08:17:14;0.60;;;0.60;;
4638;SDS011;2332;38.646;-9.154;2023-04-15T08:19:40;0.60;;;0.50;;
4638;SDS011;2332;38.646;-9.154;2023-04-15T08:22:06;0.77;;;0.60;;
4638;SDS011;2332;38.646;-9.154;2023-04-15T08:24:32;1.80;;;0.70;;
4638;SDS011;2332;38.646;-9.154;2023-04-15T08:26:58;2.40;;;0.70;;
4638;SDS011;2332;38.646;-9.154;2023-04-15T08:29:24;0.50;;;0.50;;
4638;SDS011;2332;38.646;-9.154;2023-04-15T08:31:49;0.70;;;0.57;;
4638;SDS011;2332;38.646;-9.154;2023-04-15T08:34:14;1.83;;;0.80;;
4638;SDS011;2332;38.646;-9.154;2023-04-15T08:36:41;0.90;;;0.70;;
4638;SDS011;2332;38.646;-9.154;2023-04-15T08:39:06;7.03;;;0.90;;
4638;SDS011;2332;38.646;-9.154;2023-04-15T08:41:39;0.77;;;0.60;;
4638;SDS011;2332;38.646;-9.154;2023-04-15T08:44:04;0.90;;;0.70;;
4638;SDS011;2332;38.646;-9.154;2023-04-15T08:46:31;3.80;;;0.60;;
4638;SDS011;2332;38.646;-9.154;2023-04-15T08:48:58;2.40;;;1.37;;
4638;SDS011;2332;38.646;-9.154;2023-04-15T08:51:23;1.27;;;0.70;;
4638;SDS011;2332;38.646;-9.154;2023-04-15T08:53:49;0.97;;;0.60;;
4638;SDS011;2332;38.646;-9.154;2023-04-15T08:56:17;0.90;;;0.63;;
4638;SDS011;2332;38.646;-9.154;2023-04-15T08:58:44;0.60;;;0.60;;
4638;SDS011;2332;38.646;-9.154;2023-04-15T09:01:11;0.60;;;0.60;;
4638;SDS011;2332;38.646;-9.154;2023-04-15T09:03:37;10.60;;;1.10;;
4638;SDS011;2332;38.646;-9.154;2023-04-15T09:06:03;0.80;;;0.80;;
4638;SDS011;2332;38.646;-9.154;2023-04-15T09:08:29;1.03;;;0.83;;
4638;SDS011;2332;38.646;-9.154;2023-04-15T09:10:54;1.10;;;0.73;;
4638;SDS011;2332;38.646;-9.154;2023-04-15T09:13:19;0.60;;;0.60;;
4638;SDS011;2332;38.646;-9.154;2023-04-15T09:15:46;2.03;;;0.90;;
4638;SDS011;2332;38.646;-9.154;2023-04-15T09:18:11;0.70;;;0.70;;
4638;SDS011;2332;38.646;-9.154;2023-04-15T09:20:38;3.17;;;0.80;;
4638;SDS011;2332;38.646;-9.154;2023-04-15T09:23:10;2.77;;;0.70;;
4638;SDS011;2332;38.646;-9.154;2023-04-15T09:25:36;0.63;;;0.60;;
4638;SDS011;2332;38.646;-9.154;2023-04-15T09:28:02;1.50;;;0.80;;
4638;SDS011;2332;38.646;-9.154;2023-04-15T09:30:27;0.70;;;0.70;;
4638;SDS011;2332;38.646;-9.154;2023-04-15T09:32:57;0.60;;;0.60;;
4638;SDS011;2332;38.646;-9.154;2023-04-15T09:35:23;3.10;;;1.50;;
4638;SDS011;2332;38.646;-9.154;2023-04-15T09:37:49;1.40;;;0.90;;
4638;SDS011;2332;38.646;-9.154;2023-04-15T09:42:57;1.17;;;1.00;;
4638;SDS011;2332;38.646;-9.154;2023-04-15T09:45:22;1.53;;;1.00;;
4638;SDS011;2332;38.646;-9.154;2023-04-15T09:47:48;1.87;;;0.90;;
4638;SDS011;2332;38.646;-9.154;2023-04-15T09:50:15;1.97;;;0.93;;
4638;SDS011;2332;38.646;-9.154;2023-04-15T09:52:41;2.33;;;1.17;;
4638;SDS011;2332;38.646;-9.154;2023-04-15T09:55:07;1.53;;;1.43;;
4638;SDS011;2332;38.646;-9.154;2023-04-15T09:57:33;1.70;;;0.83;;
4638;SDS011;2332;38.646;-9.154;2023-04-15T09:59:59;1.90;;;0.87;;
4638;SDS011;2332;38.646;-9.154;2023-04-15T10:02:25;2.57;;;1.23;;
4638;SDS011;2332;38.646;-9.154;2023-04-15T10:04:51;1.23;;;1.07;;
4638;SDS011;2332;38.646;-9.154;2023-04-15T10:07:16;3.00;;;1.00;;
4638;SDS011;2332;38.646;-9.154;2023-04-15T10:09:44;1.63;;;0.83;;
4638;SDS011;2332;38.646;-9.154;2023-04-15T10:12:11;1.27;;;1.07;;
4638;SDS011;2332;38.646;-9.154;2023-04-15T10:14:37;2.30;;;1.20;;
4638;SDS011;2332;38.646;-9.154;2023-04-15T10:17:05;1.93;;;1.00;;
4638;SDS011;2332;38.646;-9.154;2023-04-15T10:19:32;4.93;;;1.70;;
4638;SDS011;2332;38.646;-9.154;2023-04-15T10:21:58;3.73;;;2.30;;
4638;SDS011;2332;38.646;-9.154;2023-04-15T10:24:24;3.13;;;1.70;;
4638;SDS011;2332;38.646;-9.154;2023-04-15T10:26:50;1.77;;;1.10;;
4638;SDS011;2332;38.646;-9.154;2023-04-15T10:29:16;2.00;;;1.47;;
4638;SDS011;2332;38.646;-9.154;2023-04-15T10:31:41;1.27;;;1.13;;
4638;SDS011;2332;38.646;-9.154;2023-04-15T10:34:07;1.60;;;1.50;;
4638;SDS011;2332;38.646;-9.154;2023-04-15T10:36:33;1.97;;;1.63;;
4638;SDS011;2332;38.646;-9.154;2023-04-15T10:38:59;2.93;;;2.10;;
4638;SDS011;2332;38.646;-9.154;2023-04-15T10:41:24;3.20;;;1.20;;
4638;SDS011;2332;38.646;-9.154;2023-04-15T10:44:03;1.73;;;1.63;;
4638;SDS011;2332;38.646;-9.154;2023-04-15T10:46:36;3.17;;;1.93;;
4638;SDS011;2332;38.646;-9.154;2023-04-15T10:49:14;3.53;;;2.17;;
4638;SDS011;2332;38.646;-9.154;2023-04-15T10:51:41;3.20;;;1.83;;
4638;SDS011;2332;38.646;-9.154;2023-04-15T10:54:14;2.87;;;1.50;;
4638;SDS011;2332;38.646;-9.154;2023-04-15T10:56:40;3.00;;;2.00;;
4638;SDS011;2332;38.646;-9.154;2023-04-15T10:59:06;2.73;;;1.53;;
4638;SDS011;2332;38.646;-9.154;2023-04-15T11:04:49;3.03;;;2.00;;
4638;SDS011;2332;38.646;-9.154;2023-04-15T11:07:05;1.53;;;1.40;;
4638;SDS011;2332;38.646;-9.154;2023-04-15T11:09:31;5.90;;;2.27;;
4638;SDS011;2332;38.646;-9.154;2023-04-15T11:12:07;8.13;;;1.73;;
4638;SDS011;2332;38.646;-9.154;2023-04-15T11:14:35;3.63;;;1.77;;
4638;SDS011;2332;38.646;-9.154;2023-04-15T11:17:03;2.20;;;2.00;;
4638;SDS011;2332;38.646;-9.154;2023-04-15T11:19:35;3.20;;;2.40;;
4638;SDS011;2332;38.646;-9.154;2023-04-15T11:22:07;8.93;;;2.50;;
4638;SDS011;2332;38.646;-9.154;2023-04-15T11:24:33;9.87;;;2.20;;
4638;SDS011;2332;38.646;-9.154;2023-04-15T11:27:00;2.50;;;1.60;;
4638;SDS011;2332;38.646;-9.154;2023-04-15T11:29:29;9.83;;;1.90;;
4638;SDS011;2332;38.646;-9.154;2023-04-15T11:32:05;1.43;;;1.30;;
4638;SDS011;2332;38.646;-9.154;2023-04-15T11:34:32;4.67;;;2.17;;
4638;SDS011;2332;38.646;-9.154;2023-04-15T11:36:59;2.17;;;1.77;;
4638;SDS011;2332;38.646;-9.154;2023-04-15T11:39:27;5.07;;;1.47;;
4638;SDS011;2332;38.646;-9.154;2023-04-15T11:41:53;4.20;;;2.10;;
4638;SDS011;2332;38.646;-9.154;2023-04-15T11:44:19;5.30;;;2.00;;
4638;SDS011;2332;38.646;-9.154;2023-04-15T11:46:44;4.87;;;2.17;;
4638;SDS011;2332;38.646;-9.154;2023-04-15T11:49:09;5.47;;;2.30;;
4638;SDS011;2332;38.646;-9.154;2023-04-15T11:51:35;6.67;;;1.97;;
4638;SDS011;2332;38.646;-9.154;2023-04-15T11:54:01;6.00;;;2.03;;
4638;SDS011;2332;38.646;-9.154;2023-04-15T11:56:27;3.37;;;1.30;;
4638;SDS011;2332;38.646;-9.154;2023-04-15T11:58:56;2.50;;;1.93;;
4638;SDS011;2332;38.646;-9.154;2023-04-15T12:01:35;1.63;;;1.43;;
4638;SDS011;2332;38.646;-9.154;2023-04-15T12:04:00;5.00;;;1.63;;
4638;SDS011;2332;38.646;-9.154;2023-04-15T12:06:31;8.50;;;1.97;;
4638;SDS011;2332;38.646;-9.154;2023-04-15T12:09:09;6.40;;;1.90;;
4638;SDS011;2332;38.646;-9.154;2023-04-15T12:11:44;4.57;;;1.57;;
4638;SDS011;2332;38.646;-9.154;2023-04-15T12:16:45;2.40;;;1.60;;
4638;SDS011;2332;38.646;-9.154;2023-04-15T12:19:13;11.10;;;1.70;;
4638;SDS011;2332;38.646;-9.154;2023-04-15T12:21:39;7.50;;;1.70;;
4638;SDS011;2332;38.646;-9.154;2023-04-15T12:24:07;4.73;;;1.80;;
4638;SDS011;2332;38.646;-9.154;2023-04-15T12:26:45;5.83;;;1.70;;
4638;SDS011;2332;38.646;-9.154;2023-04-15T12:29:12;4.83;;;1.50;;
4638;SDS011;2332;38.646;-9.154;2023-04-15T12:31:54;3.07;;;1.20;;
4638;SDS011;2332;38.646;-9.154;2023-04-15T12:36:51;5.13;;;1.80;;
4638;SDS011;2332;38.646;-9.154;2023-04-15T12:39:17;2.00;;;1.43;;
4638;SDS011;2332;38.646;-9.154;2023-04-15T12:41:45;3.53;;;1.50;;
4638;SDS011;2332;38.646;-9.154;2023-04-15T12:44:11;3.67;;;1.90;;
4638;SDS011;2332;38.646;-9.154;2023-04-15T12:46:36;3.13;;;1.43;;
4638;SDS011;2332;38.646;-9.154;2023-04-15T12:49:02;4.77;;;1.60;;
4638;SDS011;2332;38.646;-9.154;2023-04-15T12:51:28;1.73;;;1.27;;
4638;SDS011;2332;38.646;-9.154;2023-04-15T12:53:53;1.97;;;1.20;;
4638;SDS011;2332;38.646;-9.154;2023-04-15T12:56:18;2.07;;;1.70;;
4638;SDS011;2332;38.646;-9.154;2023-04-15T12:58:44;6.00;;;1.80;;
4638;SDS011;2332;38.646;-9.154;2023-04-15T13:01:10;1.50;;;1.40;;
4638;SDS011;2332;38.646;-9.154;2023-04-15T13:03:35;1.53;;;1.43;;
4638;SDS011;2332;38.646;-9.154;2023-04-15T13:06:01;2.70;;;1.57;;
4638;SDS011;2332;38.646;-9.154;2023-04-15T13:08:28;2.50;;;1.50;;
4638;SDS011;2332;38.646;-9.154;2023-04-15T13:10:54;1.43;;;1.30;;
4638;SDS011;2332;38.646;-9.154;2023-04-15T13:13:20;3.20;;;1.40;;
4638;SDS011;2332;38.646;-9.154;2023-04-15T13:15:45;1.50;;;1.40;;
4638;SDS011;2332;38.646;-9.154;2023-04-15T13:18:11;1.60;;;1.33;;
4638;SDS011;2332;38.646;-9.154;2023-04-15T13:20:37;2.93;;;1.50;;
4638;SDS011;2332;38.646;-9.154;2023-04-15T13:23:02;1.73;;;1.40;;
4638;SDS011;2332;38.646;-9.154;2023-04-15T13:25:27;2.60;;;1.20;;
4638;SDS011;2332;38.646;-9.154;2023-04-15T13:27:53;2.50;;;1.93;;
4638;SDS011;2332;38.646;-9.154;2023-04-15T13:30:18;2.67;;;1.60;;
4638;SDS011;2332;38.646;-9.154;2023-04-15T13:32:44;2.40;;;1.60;;
4638;SDS011;2332;38.646;-9.154;2023-04-15T13:35:10;4.47;;;1.47;;
4638;SDS011;2332;38.646;-9.154;2023-04-15T13:37:35;1.80;;;1.60;;
4638;SDS011;2332;38.646;-9.154;2023-04-15T13:40:01;3.20;;;1.73;;
4638;SDS011;2332;38.646;-9.154;2023-04-15T13:42:26;1.77;;;1.60;;
4638;SDS011;2332;38.646;-9.154;2023-04-15T13:44:52;2.20;;;1.80;;
4638;SDS011;2332;38.646;-9.154;2023-04-15T13:47:18;2.67;;;1.80;;
4638;SDS011;2332;38.646;-9.154;2023-04-15T13:49:43;2.20;;;1.97;;
4638;SDS011;2332;38.646;-9.154;2023-04-15T13:52:09;2.23;;;1.40;;
4638;SDS011;2332;38.646;-9.154;2023-04-15T13:54:35;2.63;;;1.63;;
4638;SDS011;2332;38.646;-9.154;2023-04-15T13:57:00;4.20;;;1.30;;
4638;SDS011;2332;38.646;-9.154;2023-04-15T13:59:26;4.93;;;1.63;;
4638;SDS011;2332;38.646;-9.154;2023-04-15T14:01:51;4.53;;;1.63;;
4638;SDS011;2332;38.646;-9.154;2023-04-15T14:04:17;2.90;;;2.17;;
4638;SDS011;2332;38.646;-9.154;2023-04-15T14:06:45;2.53;;;1.50;;
4638;SDS011;2332;38.646;-9.154;2023-04-15T14:09:10;3.00;;;1.60;;
4638;SDS011;2332;38.646;-9.154;2023-04-15T14:11:38;4.20;;;1.90;;
4638;SDS011;2332;38.646;-9.154;2023-04-15T14:14:04;3.73;;;2.00;;
4638;SDS011;2332;38.646;-9.154;2023-04-15T14:16:31;3.67;;;1.93;;
4638;SDS011;2332;38.646;-9.154;2023-04-15T14:18:57;2.27;;;1.90;;
4638;SDS011;2332;38.646;-9.154;2023-04-15T14:21:22;7.90;;;2.10;;
4638;SDS011;2332;38.646;-9.154;2023-04-15T14:23:48;7.80;;;2.23;;
4638;SDS011;2332;38.646;-9.154;2023-04-15T14:26:13;2.60;;;1.97;;
4638;SDS011;2332;38.646;-9.154;2023-04-15T14:28:38;4.97;;;2.23;;
4638;SDS011;2332;38.646;-9.154;2023-04-15T14:31:04;8.20;;;2.10;;
4638;SDS011;2332;38.646;-9.154;2023-04-15T14:33:30;9.37;;;2.63;;
4638;SDS011;2332;38.646;-9.154;2023-04-15T14:35:56;4.63;;;2.27;;
4638;SDS011;2332;38.646;-9.154;2023-04-15T14:38:21;3.57;;;2.10;;
4638;SDS011;2332;38.646;-9.154;2023-04-15T14:40:47;2.73;;;2.00;;
4638;SDS011;2332;38.646;-9.154;2023-04-15T14:43:12;8.30;;;3.10;;
4638;SDS011;2332;38.646;-9.154;2023-04-15T14:45:37;9.77;;;2.90;;
4638;SDS011;2332;38.646;-9.154;2023-04-15T14:48:03;11.73;;;2.30;;
4638;SDS011;2332;38.646;-9.154;2023-04-15T14:50:30;3.77;;;2.83;;
4638;SDS011;2332;38.646;-9.154;2023-04-15T14:52:56;6.30;;;2.70;;
4638;SDS011;2332;38.646;-9.154;2023-04-15T14:55:21;7.17;;;3.00;;
4638;SDS011;2332;38.646;-9.154;2023-04-15T14:57:46;6.97;;;3.87;;
4638;SDS011;2332;38.646;-9.154;2023-04-15T15:00:12;11.50;;;3.77;;
4638;SDS011;2332;38.646;-9.154;2023-04-15T15:02:37;9.23;;;3.60;;
4638;SDS011;2332;38.646;-9.154;2023-04-15T15:05:03;8.87;;;3.70;;